Edgewater, Ohio
Current Conditions -  °F | °C
As of 1:51 AM on Monday 24 Nov 2014 (Local Time) from KCLE Reporting Station
Broken Clouds Broken Clouds  
Wind Chill: 58°   Ceiling: 4400
Heat Index: 58°   Visibility: 10mi
Dew Point: 52°   Wind: 24mph
Humidity: 81%   Direction: 170°S
Pressure: 29.26"   Gusts: 32mph
Location:  41.4825°N, 81.8004°W
Report Text: KCLE 240651Z 17021G28KT 10SM FEW021 BKN044 BKN055 14/11 A2926 RMK AO2 PK WND 15032/0559 RAE37 SLP905 P0001 T01440111 $
Loading
Personal Weather Stations






























Interactive Weather Map New forecast layout! Learn more

10-Day Weather Forecast

Advertisements
Track Severe Weather on mobile